Time;durP1;ratioP1;P1;durP2;ratioP2;P2;SDS_P1;SDS_P2;PMS_P1;PMS_P2;Temp;Humidity;BMP_temperature;BMP_pressure;BME280_temperature;BME280_humidity;BME280_pressure;Samples;Min_cycle;Max_cycle;Signal;HPM_P1;HPM_P2
2021/12/22 00:01:44;;;;;;;67.67;32.60;;;-3.40;99.90;;;;;;5114047;28;20218;-78
2021/12/22 00:04:11;;;;;;;71.27;32.70;;;-3.40;99.90;;;;;;5123221;28;20223;-79
2021/12/22 00:06:38;;;;;;;76.23;32.93;;;-3.50;99.90;;;;;;5116528;28;20229;-77
2021/12/22 00:09:06;;;;;;;75.93;34.60;;;-3.50;99.90;;;;;;5110537;28;20218;-78
2021/12/22 00:11:32;;;;;;;77.50;33.77;;;-3.50;99.90;;;;;;5094120;28;20210;-78
2021/12/22 00:13:59;;;;;;;68.13;31.43;;;-3.50;99.90;;;;;;5102659;28;20230;-78
2021/12/22 00:16:26;;;;;;;74.93;33.60;;;-3.60;99.90;;;;;;5116636;28;20218;-78
2021/12/22 00:18:53;;;;;;;71.23;32.17;;;-3.60;99.90;;;;;;5104964;28;20207;-78
2021/12/22 00:21:20;;;;;;;64.13;30.23;;;-3.60;99.90;;;;;;5112744;28;20235;-77
2021/12/22 00:23:47;;;;;;;66.47;32.60;;;-3.70;99.90;;;;;;5108353;28;20200;-78
2021/12/22 00:26:15;;;;;;;62.13;31.83;;;-3.70;99.90;;;;;;5088051;28;20270;-79
2021/12/22 00:28:45;;;;;;;58.90;30.70;;;-3.70;99.90;;;;;;5117997;28;20226;-79
2021/12/22 00:31:14;;;;;;;62.73;32.40;;;-3.70;99.90;;;;;;5090486;28;20200;-79
2021/12/22 00:33:48;;;;;;;66.87;32.57;;;-3.70;99.90;;;;;;5102542;28;20250;-78
2021/12/22 00:36:19;;;;;;;65.20;32.73;;;-3.80;99.90;;;;;;5104732;28;20279;-79
2021/12/22 00:38:46;;;;;;;65.23;31.47;;;-3.80;99.90;;;;;;5121509;28;20245;-79
2021/12/22 00:41:14;;;;;;;65.23;32.87;;;-3.80;99.90;;;;;;5117052;28;20219;-79
2021/12/22 00:43:41;;;;;;;62.87;30.27;;;-3.80;99.90;;;;;;5110807;28;20266;-80
2021/12/22 00:46:09;;;;;;;61.80;30.77;;;-3.80;99.90;;;;;;5123865;28;20666;-79
2021/12/22 00:48:35;;;;;;;58.03;28.87;;;-3.80;99.90;;;;;;5120859;28;20597;-79
2021/12/22 00:51:02;;;;;;;61.03;28.93;;;-3.80;99.90;;;;;;5120144;28;20219;-79
2021/12/22 00:53:29;;;;;;;58.87;29.80;;;-3.80;99.90;;;;;;5090485;28;20285;-79
2021/12/22 00:55:56;;;;;;;52.60;28.50;;;-3.80;99.90;;;;;;5116801;28;20234;-79
2021/12/22 00:58:23;;;;;;;55.17;28.33;;;-3.90;99.90;;;;;;5110392;28;20243;-80
2021/12/22 01:00:50;;;;;;;53.03;25.07;;;-3.90;99.90;;;;;;5091400;28;20215;-79
2021/12/22 01:03:18;;;;;;;60.27;27.77;;;-3.90;99.90;;;;;;5116749;28;20216;-81
2021/12/22 01:05:46;;;;;;;54.70;28.90;;;-4.00;99.90;;;;;;5119170;28;20233;-79
2021/12/22 01:08:13;;;;;;;58.37;27.87;;;-4.00;99.90;;;;;;5119503;28;20305;-80
2021/12/22 01:10:40;;;;;;;54.87;26.97;;;-4.00;99.90;;;;;;5104177;28;20639;-80
2021/12/22 01:13:07;;;;;;;50.83;26.73;;;-4.00;99.90;;;;;;5098438;28;20290;-80
2021/12/22 01:15:35;;;;;;;63.10;29.07;;;-4.00;99.90;;;;;;5094252;28;20323;-80
2021/12/22 01:18:14;;;;;;;56.60;28.97;;;-4.00;99.90;;;;;;5101037;28;20693;-79
2021/12/22 01:23:51;;;;;;;53.73;26.87;;;-4.00;99.90;;;;;;5065561;28;20210;-79
2021/12/22 01:26:18;;;;;;;49.13;24.67;;;-4.10;99.90;;;;;;5098473;28;20232;-80
2021/12/22 01:28:44;;;;;;;49.83;25.50;;;-4.00;99.90;;;;;;5083971;28;20206;-79
2021/12/22 01:31:15;;;;;;;57.77;27.23;;;-4.00;99.90;;;;;;5106877;28;20202;-79
2021/12/22 01:33:43;;;;;;;49.87;25.57;;;-4.00;99.90;;;;;;5104860;28;20314;-79
2021/12/22 01:36:10;;;;;;;59.00;27.37;;;-4.00;99.90;;;;;;5105006;28;20214;-79
2021/12/22 01:38:37;;;;;;;52.03;27.63;;;-4.10;99.90;;;;;;5106727;28;20216;-79
2021/12/22 01:41:05;;;;;;;54.37;25.50;;;-4.10;99.90;;;;;;5100956;28;20663;-79
2021/12/22 01:43:32;;;;;;;53.37;26.53;;;-4.10;99.90;;;;;;5095086;28;20284;-80
2021/12/22 01:46:32;;;;;;;48.47;24.53;;;-4.10;99.90;;;;;;5105118;28;20238;-80
2021/12/22 01:49:10;;;;;;;42.23;23.53;;;-4.10;99.90;;;;;;5105628;28;20717;-80
2021/12/22 01:51:51;;;;;;;53.97;23.27;;;-4.20;99.90;;;;;;5096199;28;20214;-80
2021/12/22 01:54:32;;;;;;;57.57;25.10;;;-4.20;99.90;;;;;;5101731;28;20215;-79
2021/12/22 01:57:08;;;;;;;44.93;23.80;;;-4.20;99.90;;;;;;5085965;28;20297;-79
2021/12/22 01:59:36;;;;;;;50.20;23.90;;;-4.20;99.90;;;;;;5094589;28;20631;-79
2021/12/22 02:02:07;;;;;;;47.97;24.20;;;-4.20;99.90;;;;;;5098875;28;20224;-79
2021/12/22 02:04:35;;;;;;;56.00;25.73;;;-4.20;99.90;;;;;;5080069;28;20297;-79
2021/12/22 02:07:02;;;;;;;49.70;24.77;;;-4.30;99.90;;;;;;5101115;28;20227;-78
2021/12/22 02:12:16;;;;;;;47.80;24.13;;;-4.20;99.90;;;;;;5104389;28;20205;-79
2021/12/22 02:14:43;;;;;;;52.87;25.60;;;-4.20;99.90;;;;;;5095442;28;20213;-78
2021/12/22 02:17:12;;;;;;;48.67;24.10;;;-4.20;99.90;;;;;;5082501;28;20544;-78
2021/12/22 02:19:42;;;;;;;54.87;25.70;;;-4.20;99.90;;;;;;5097916;28;20263;-79
2021/12/22 02:22:13;;;;;;;49.07;24.63;;;-4.30;99.90;;;;;;5100838;28;20258;-79
2021/12/22 02:24:46;;;;;;;46.47;24.13;;;-4.30;99.90;;;;;;5099567;28;20202;-80
2021/12/22 02:27:24;;;;;;;53.30;23.53;;;-4.30;99.90;;;;;;5103555;28;20231;-78
2021/12/22 02:29:57;;;;;;;47.37;22.47;;;-4.30;99.90;;;;;;5082301;28;20301;-80
2021/12/22 02:32:58;;;;;;;47.30;23.17;;;-4.30;99.90;;;;;;5109703;28;20288;-79
2021/12/22 02:35:25;;;;;;;45.43;23.80;;;-4.30;99.90;;;;;;5099811;28;20320;-79
2021/12/22 02:37:52;;;;;;;47.63;23.80;;;-4.30;99.90;;;;;;5085759;28;20301;-79
2021/12/22 02:40:26;;;;;;;45.07;20.43;;;-4.40;99.90;;;;;;5103532;28;20230;-78
2021/12/22 02:43:03;;;;;;;51.87;22.00;;;-4.40;99.90;;;;;;5087775;28;20325;-78
2021/12/22 02:45:31;;;;;;;50.33;22.00;;;-4.40;99.90;;;;;;5105125;28;21033;-78
2021/12/22 02:47:58;;;;;;;42.60;22.00;;;-4.50;99.90;;;;;;5102243;28;20368;-78
2021/12/22 02:50:25;;;;;;;49.37;23.40;;;-4.40;99.90;;;;;;5084453;28;20226;-79
2021/12/22 02:55:31;;;;;;;51.90;23.03;;;-4.50;99.90;;;;;;5105995;28;20672;-78
2021/12/22 02:58:02;;;;;;;43.37;21.07;;;-4.50;99.90;;;;;;5109227;28;20271;-79
2021/12/22 03:00:49;;;;;;;44.20;21.23;;;-4.50;99.90;;;;;;5098963;28;20266;-79
2021/12/22 03:05:43;;;;;;;46.23;22.03;;;-4.50;99.90;;;;;;5105521;28;20691;-79
2021/12/22 03:08:11;;;;;;;42.87;20.67;;;-4.50;99.90;;;;;;5090075;28;20263;-79
2021/12/22 03:10:38;;;;;;;49.40;24.60;;;-4.50;99.90;;;;;;5112220;28;20580;-79
2021/12/22 03:13:05;;;;;;;48.77;21.27;;;-4.50;99.90;;;;;;5091002;28;20705;-78
2021/12/22 03:15:32;;;;;;;41.00;21.83;;;-4.60;99.90;;;;;;5111868;28;20299;-79
2021/12/22 03:18:00;;;;;;;43.53;21.00;;;-4.60;99.90;;;;;;5108443;28;20282;-80
2021/12/22 03:20:27;;;;;;;53.67;21.70;;;-4.60;99.90;;;;;;5089545;28;20228;-79
2021/12/22 03:22:54;;;;;;;59.97;21.90;;;-4.60;99.90;;;;;;5099065;28;20216;-79
2021/12/22 03:25:25;;;;;;;49.70;21.27;;;-4.60;99.90;;;;;;5098636;28;20252;-80
2021/12/22 03:27:56;;;;;;;51.77;20.60;;;-4.60;99.90;;;;;;5102715;28;20262;-79
2021/12/22 03:30:26;;;;;;;44.23;20.60;;;-4.60;99.90;;;;;;5088217;28;20291;-80
2021/12/22 03:32:53;;;;;;;42.77;20.10;;;-4.60;99.90;;;;;;5081512;28;20251;-80
2021/12/22 03:35:21;;;;;;;44.07;20.93;;;-4.60;99.90;;;;;;5102007;28;20311;-79
2021/12/22 03:37:54;;;;;;;50.60;20.90;;;-4.60;99.90;;;;;;5101589;28;20201;-80
2021/12/22 03:40:23;;;;;;;50.50;20.27;;;-4.60;99.90;;;;;;5085241;28;20282;-79
2021/12/22 03:42:50;;;;;;;50.77;20.87;;;-4.60;99.90;;;;;;5099189;28;20745;-79
2021/12/22 03:45:18;;;;;;;42.50;18.77;;;-4.60;99.90;;;;;;5099147;28;20204;-78
2021/12/22 03:47:46;;;;;;;43.20;18.60;;;-4.70;99.90;;;;;;5101847;28;20261;-78
2021/12/22 03:50:14;;;;;;;39.70;20.60;;;-4.60;99.90;;;;;;5096835;28;20261;-80
2021/12/22 03:52:41;;;;;;;50.33;22.03;;;-4.60;99.90;;;;;;5084115;28;20694;-79
2021/12/22 03:55:09;;;;;;;40.67;19.90;;;-4.60;99.90;;;;;;5097413;28;20219;-79
2021/12/22 03:57:36;;;;;;;46.07;21.00;;;-4.60;99.90;;;;;;5102031;28;20314;-79
2021/12/22 04:00:06;;;;;;;45.30;20.67;;;-4.60;99.90;;;;;;5098450;28;20236;-80
2021/12/22 04:02:33;;;;;;;49.10;20.30;;;-4.60;99.90;;;;;;5083382;28;20949;-78
2021/12/22 04:05:00;;;;;;;47.63;22.20;;;-4.60;99.90;;;;;;5107841;28;20282;-79
2021/12/22 04:07:27;;;;;;;49.47;21.53;;;-4.60;99.90;;;;;;5104794;28;20267;-79
2021/12/22 04:09:54;;;;;;;45.77;22.43;;;-4.60;99.90;;;;;;5094246;28;20544;-80
2021/12/22 04:12:22;;;;;;;53.00;23.30;;;-4.60;99.90;;;;;;5100737;28;20236;-79
2021/12/22 04:14:49;;;;;;;52.27;23.40;;;-4.60;99.90;;;;;;5103238;28;20265;-79
2021/12/22 04:17:16;;;;;;;55.23;23.10;;;-4.60;99.90;;;;;;5095918;28;20303;-80
2021/12/22 04:19:43;;;;;;;54.43;22.77;;;-4.60;99.90;;;;;;5102842;28;20302;-79
2021/12/22 04:22:10;;;;;;;51.10;23.20;;;-4.60;99.90;;;;;;5101800;28;20727;-80
2021/12/22 04:24:40;;;;;;;52.47;23.90;;;-4.60;99.90;;;;;;5100225;28;20248;-79
2021/12/22 04:27:07;;;;;;;50.90;23.10;;;-4.70;99.90;;;;;;5101603;28;20470;-80
2021/12/22 04:29:34;;;;;;;47.30;21.53;;;-4.60;99.90;;;;;;5108336;28;20510;-81
2021/12/22 04:32:01;;;;;;;46.50;20.83;;;-4.60;99.90;;;;;;5117395;28;20198;-79
2021/12/22 04:34:27;;;;;;;47.67;21.33;;;-4.70;99.90;;;;;;5119266;28;20243;-76
2021/12/22 04:36:54;;;;;;;50.93;21.37;;;-4.70;99.90;;;;;;5118670;28;20231;-78
2021/12/22 04:39:21;;;;;;;42.63;21.47;;;-4.70;99.90;;;;;;5114798;28;20258;-78
2021/12/22 04:41:48;;;;;;;39.80;19.37;;;-4.70;99.90;;;;;;5116669;28;20224;-77
2021/12/22 04:44:15;;;;;;;42.87;19.90;;;-4.70;99.90;;;;;;5079657;28;20737;-79
2021/12/22 04:46:42;;;;;;;41.33;20.23;;;-4.70;99.90;;;;;;5105032;28;20230;-79
2021/12/22 04:49:09;;;;;;;37.97;19.17;;;-4.70;99.90;;;;;;5100844;28;20523;-79
2021/12/22 04:51:36;;;;;;;49.47;20.73;;;-4.70;99.90;;;;;;5081481;28;20293;-79
2021/12/22 04:54:18;;;;;;;43.20;18.50;;;-4.70;99.90;;;;;;5094966;28;20893;-79
2021/12/22 04:56:45;;;;;;;50.87;19.57;;;-4.70;99.90;;;;;;5100762;28;20204;-80
2021/12/22 04:59:12;;;;;;;47.83;19.60;;;-4.70;99.90;;;;;;5097773;28;20257;-77
2021/12/22 05:01:38;;;;;;;42.27;19.70;;;-4.70;99.90;;;;;;5098461;28;20737;-80
2021/12/22 05:04:05;;;;;;;46.77;20.13;;;-4.70;99.90;;;;;;5104622;28;20200;-78
2021/12/22 05:06:35;;;;;;;44.80;18.37;;;-4.70;99.90;;;;;;5109895;28;20217;-79
2021/12/22 05:09:07;;;;;;;40.13;19.00;;;-4.70;99.90;;;;;;5100387;28;20309;-79
2021/12/22 05:11:34;;;;;;;45.30;18.37;;;-4.70;99.90;;;;;;5102322;28;20213;-79
2021/12/22 05:14:03;;;;;;;42.23;17.37;;;-4.70;99.90;;;;;;5104564;28;20235;-79
2021/12/22 05:16:31;;;;;;;41.20;19.40;;;-4.70;99.90;;;;;;5094011;28;20217;-79
2021/12/22 05:19:14;;;;;;;50.33;17.87;;;-4.70;99.90;;;;;;5098069;28;20296;-79
2021/12/22 05:21:42;;;;;;;55.13;20.77;;;-4.70;99.90;;;;;;5080511;28;20646;-80
2021/12/22 05:24:09;;;;;;;49.47;20.03;;;-4.70;99.90;;;;;;5107736;28;20214;-80
2021/12/22 05:26:37;;;;;;;52.87;20.23;;;-4.70;99.90;;;;;;5099590;28;20700;-77
2021/12/22 05:29:04;;;;;;;45.90;19.30;;;-4.60;99.90;;;;;;5105080;28;20224;-77
2021/12/22 05:31:31;;;;;;;50.27;20.50;;;-4.60;99.90;;;;;;5106513;28;20680;-79
2021/12/22 05:33:58;;;;;;;52.47;19.50;;;-4.60;99.90;;;;;;5102029;28;20207;-79
2021/12/22 05:36:25;;;;;;;51.07;19.40;;;-4.60;99.90;;;;;;5103592;28;20256;-79
2021/12/22 05:38:52;;;;;;;43.87;18.97;;;-4.60;99.90;;;;;;5101670;28;20290;-79
2021/12/22 05:41:18;;;;;;;50.47;18.33;;;-4.60;99.90;;;;;;5106175;28;20219;-79
2021/12/22 05:43:45;;;;;;;44.77;17.90;;;-4.60;99.90;;;;;;5106742;28;20591;-79
2021/12/22 05:46:12;;;;;;;51.53;19.23;;;-4.50;99.90;;;;;;5107078;28;20272;-79
2021/12/22 05:48:39;;;;;;;53.33;19.23;;;-4.50;99.90;;;;;;5082294;28;20245;-79
2021/12/22 05:51:07;;;;;;;44.57;18.50;;;-4.50;99.90;;;;;;5103913;28;20214;-79
2021/12/22 05:53:34;;;;;;;53.23;20.60;;;-4.50;99.90;;;;;;5101042;28;20246;-78
2021/12/22 05:56:01;;;;;;;50.90;18.87;;;-4.50;99.90;;;;;;5101985;28;20241;-79
2021/12/22 05:58:27;;;;;;;52.17;19.83;;;-4.50;99.90;;;;;;5106844;28;20302;-82
2021/12/22 06:00:55;;;;;;;50.47;19.10;;;-4.50;99.90;;;;;;5081259;28;20467;-80
2021/12/22 06:03:22;;;;;;;49.83;19.13;;;-4.50;99.90;;;;;;5106686;28;20209;-79
2021/12/22 06:05:49;;;;;;;49.17;19.20;;;-4.50;99.90;;;;;;5104552;28;20216;-79
2021/12/22 06:08:16;;;;;;;48.20;17.97;;;-4.50;99.90;;;;;;5107181;28;20334;-79
2021/12/22 06:10:42;;;;;;;50.47;19.30;;;-4.50;99.90;;;;;;5101309;28;20232;-78
2021/12/22 06:13:10;;;;;;;51.90;18.97;;;-4.50;99.90;;;;;;5098372;28;20655;-79
2021/12/22 06:15:39;;;;;;;50.13;19.13;;;-4.50;99.90;;;;;;5085293;28;20233;-79
2021/12/22 06:18:07;;;;;;;47.80;20.10;;;-4.50;99.90;;;;;;5094168;28;20209;-79
2021/12/22 06:20:35;;;;;;;56.13;20.17;;;-4.50;99.90;;;;;;5097896;28;20222;-78
2021/12/22 06:23:01;;;;;;;51.27;18.73;;;-4.50;99.90;;;;;;5100912;28;20862;-79
2021/12/22 06:25:33;;;;;;;65.07;19.13;;;-4.60;99.90;;;;;;5099701;28;20211;-79
2021/12/22 06:28:00;;;;;;;56.50;20.43;;;-4.50;99.90;;;;;;5103505;28;20232;-80
2021/12/22 06:30:27;;;;;;;56.83;19.23;;;-4.50;99.90;;;;;;5107559;28;20293;-80
2021/12/22 06:32:54;;;;;;;54.13;18.77;;;-4.50;99.90;;;;;;5105180;28;20210;-80
2021/12/22 06:35:21;;;;;;;44.03;18.83;;;-4.60;99.90;;;;;;5100581;28;20221;-79
2021/12/22 06:37:48;;;;;;;54.63;19.77;;;-4.50;99.90;;;;;;5099380;28;20209;-80
2021/12/22 06:40:15;;;;;;;53.33;19.07;;;-4.50;99.90;;;;;;5097354;28;20242;-79
2021/12/22 06:42:42;;;;;;;46.53;17.77;;;-4.50;99.90;;;;;;5099412;28;20217;-79
2021/12/22 06:45:11;;;;;;;58.40;20.50;;;-4.50;99.90;;;;;;5104103;28;20237;-80
2021/12/22 06:47:39;;;;;;;53.20;18.87;;;-4.50;99.90;;;;;;5102014;28;20290;-78
2021/12/22 06:50:07;;;;;;;46.67;19.17;;;-4.50;99.90;;;;;;5099407;28;20683;-79
2021/12/22 06:52:34;;;;;;;61.27;20.03;;;-4.60;99.90;;;;;;5102073;28;20542;-80
2021/12/22 06:55:01;;;;;;;46.97;16.93;;;-4.50;99.90;;;;;;5100741;28;20273;-77
2021/12/22 06:57:29;;;;;;;62.03;19.03;;;-4.60;99.90;;;;;;5101181;28;20207;-80
2021/12/22 06:59:58;;;;;;;53.60;19.20;;;-4.60;99.90;;;;;;5085020;28;20247;-79
2021/12/22 07:02:26;;;;;;;66.33;19.97;;;-4.60;99.90;;;;;;5081627;28;20275;-80
2021/12/22 07:04:56;;;;;;;45.93;17.50;;;-4.60;99.90;;;;;;5082369;28;20759;-79
2021/12/22 07:07:22;;;;;;;52.40;19.00;;;-4.60;99.90;;;;;;5084581;28;20240;-81
2021/12/22 07:09:49;;;;;;;53.83;19.40;;;-4.60;99.90;;;;;;5059050;28;20344;-81
2021/12/22 07:12:16;;;;;;;55.13;18.03;;;-4.60;99.90;;;;;;5085636;28;20289;-80
2021/12/22 07:14:43;;;;;;;54.17;20.13;;;-4.60;99.90;;;;;;5060344;28;20223;-80
2021/12/22 07:17:10;;;;;;;66.17;21.13;;;-4.60;99.90;;;;;;5080344;28;20578;-81
2021/12/22 07:19:37;;;;;;;55.93;20.07;;;-4.60;99.90;;;;;;5076345;28;20258;-80
2021/12/22 07:22:04;;;;;;;53.43;19.40;;;-4.60;99.90;;;;;;5082657;28;20298;-80
2021/12/22 07:24:31;;;;;;;59.63;20.20;;;-4.60;99.90;;;;;;5057768;28;20265;-79
2021/12/22 07:26:58;;;;;;;51.57;18.40;;;-4.60;99.90;;;;;;5079732;28;20292;-79
2021/12/22 07:29:25;;;;;;;55.73;19.33;;;-4.60;99.90;;;;;;5077946;28;20221;-79
2021/12/22 07:31:52;;;;;;;58.83;20.63;;;-4.60;99.90;;;;;;5074821;28;20284;-81
2021/12/22 07:34:38;;;;;;;47.50;18.77;;;-4.60;99.90;;;;;;5073431;28;20276;-80
2021/12/22 07:37:31;;;;;;;58.37;22.07;;;-4.60;99.90;;;;;;5083698;28;20302;-81
2021/12/22 07:39:57;;;;;;;59.53;20.10;;;-4.60;99.90;;;;;;5083220;28;20300;-80
2021/12/22 07:42:24;;;;;;;57.23;20.40;;;-4.60;99.90;;;;;;5069155;28;20240;-81
2021/12/22 07:44:51;;;;;;;50.23;20.67;;;-4.60;99.90;;;;;;5075937;28;20768;-83
2021/12/22 07:47:18;;;;;;;61.50;21.13;;;-4.60;99.90;;;;;;5065154;28;20211;-79
2021/12/22 07:49:45;;;;;;;48.97;18.60;;;-4.60;99.90;;;;;;5081312;28;20249;-80
2021/12/22 07:52:12;;;;;;;56.17;21.00;;;-4.60;99.90;;;;;;5078825;28;20274;-80
2021/12/22 07:54:39;;;;;;;56.13;19.87;;;-4.60;99.90;;;;;;5059290;28;20286;-80
2021/12/22 07:57:07;;;;;;;59.17;19.70;;;-4.60;99.90;;;;;;5080893;28;20213;-81
2021/12/22 07:59:34;;;;;;;55.37;18.60;;;-4.60;99.90;;;;;;5094180;28;20231;-80
2021/12/22 08:02:01;;;;;;;51.77;18.60;;;-4.60;99.90;;;;;;5098476;28;20280;-79
2021/12/22 08:04:29;;;;;;;51.33;18.40;;;-4.60;99.90;;;;;;5106762;28;20217;-79
2021/12/22 08:06:56;;;;;;;58.00;22.30;;;-4.60;99.90;;;;;;5100422;28;20208;-80
2021/12/22 08:09:26;;;;;;;59.83;20.50;;;-4.50;99.90;;;;;;5101979;28;20240;-81
2021/12/22 08:12:04;;;;;;;56.20;21.57;;;-4.40;99.90;;;;;;5079630;28;20205;-80
2021/12/22 08:14:36;;;;;;;56.23;20.10;;;-4.50;99.90;;;;;;5095956;28;20288;-81
2021/12/22 08:17:06;;;;;;;56.10;21.33;;;-4.40;99.90;;;;;;5098227;28;20234;-81
2021/12/22 08:19:33;;;;;;;68.77;21.17;;;-4.40;99.90;;;;;;5093106;28;20230;-80
2021/12/22 08:22:00;;;;;;;59.33;21.13;;;-4.30;99.90;;;;;;5077573;28;20246;-80
2021/12/22 08:24:27;;;;;;;68.40;21.73;;;-4.30;99.90;;;;;;5080499;28;20601;-80
2021/12/22 08:26:54;;;;;;;65.60;21.60;;;-4.30;99.90;;;;;;5102333;28;20210;-79
2021/12/22 08:29:21;;;;;;;55.17;20.40;;;-4.30;99.90;;;;;;5100764;28;20246;-80
2021/12/22 08:31:48;;;;;;;58.50;21.70;;;-4.20;99.90;;;;;;5104177;28;20212;-79
2021/12/22 08:34:22;;;;;;;64.57;23.13;;;-4.20;99.90;;;;;;5084140;28;20314;-80
2021/12/22 08:39:36;;;;;;;55.03;22.50;;;-4.20;99.90;;;;;;5093964;28;20616;-81
2021/12/22 08:42:06;;;;;;;57.27;21.37;;;-4.20;99.90;;;;;;5103606;28;20208;-80
2021/12/22 08:44:34;;;;;;;61.43;21.33;;;-4.20;99.90;;;;;;5105671;28;20587;-80
2021/12/22 08:47:01;;;;;;;60.00;23.13;;;-4.20;99.90;;;;;;5102982;28;20617;-80
2021/12/22 08:49:31;;;;;;;73.63;21.87;;;-4.10;99.90;;;;;;5100279;28;20242;-80
2021/12/22 08:51:57;;;;;;;62.57;21.90;;;-4.10;99.90;;;;;;5087916;28;20198;-80
2021/12/22 08:54:27;;;;;;;52.57;21.90;;;-4.10;99.90;;;;;;5099345;28;20635;-81
2021/12/22 08:56:55;;;;;;;64.40;22.23;;;-4.10;99.90;;;;;;5110893;28;20299;-81
2021/12/22 08:59:23;;;;;;;71.67;22.57;;;-4.00;99.90;;;;;;5109784;28;20226;-80
2021/12/22 09:01:51;;;;;;;64.87;22.73;;;-4.00;99.90;;;;;;5103834;28;20628;-81
2021/12/22 09:04:20;;;;;;;78.30;23.37;;;-3.90;99.90;;;;;;5117348;28;20272;-80
2021/12/22 09:06:50;;;;;;;64.03;22.53;;;-3.90;99.90;;;;;;5096473;28;21207;-79
2021/12/22 09:09:21;;;;;;;63.20;24.17;;;-3.90;99.90;;;;;;5121542;28;20242;-79
2021/12/22 09:11:50;;;;;;;63.73;22.90;;;-3.90;99.90;;;;;;5100209;28;20214;-81
2021/12/22 09:14:18;;;;;;;68.03;24.00;;;-3.80;99.90;;;;;;5109180;28;20215;-79
2021/12/22 09:16:46;;;;;;;65.30;21.73;;;-3.80;99.90;;;;;;5116128;28;20994;-81
2021/12/22 09:19:13;;;;;;;59.40;23.73;;;-3.80;99.90;;;;;;5107475;28;20241;-82
2021/12/22 09:21:40;;;;;;;61.37;21.73;;;-3.70;99.90;;;;;;5100421;28;20253;-79
2021/12/22 09:24:07;;;;;;;76.53;25.07;;;-3.70;99.90;;;;;;5091546;28;20200;-79
2021/12/22 09:26:35;;;;;;;70.10;25.60;;;-3.60;99.90;;;;;;5090840;28;20207;-81
2021/12/22 09:29:03;;;;;;;67.10;23.90;;;-3.60;99.90;;;;;;5109484;28;20311;-82
2021/12/22 09:31:31;;;;;;;79.30;24.97;;;-3.50;99.90;;;;;;5090255;28;20670;-81
2021/12/22 09:33:58;;;;;;;78.43;25.20;;;-3.40;99.90;;;;;;5108445;28;20219;-79
2021/12/22 09:36:25;;;;;;;75.63;25.33;;;-3.40;99.90;;;;;;5081773;28;20239;-80
2021/12/22 09:38:52;;;;;;;76.87;25.20;;;-3.30;99.90;;;;;;5085317;28;20238;-80
2021/12/22 09:41:19;;;;;;;70.63;26.60;;;-3.20;99.90;;;;;;5103811;28;20357;-79
2021/12/22 09:43:46;;;;;;;86.37;26.30;;;-3.10;99.90;;;;;;5106159;28;20216;-80
2021/12/22 09:46:18;;;;;;;74.07;27.27;;;-3.00;99.90;;;;;;5086109;28;20652;-80
2021/12/22 09:48:59;;;;;;;72.93;26.90;;;-3.00;99.90;;;;;;5106815;28;20242;-79
2021/12/22 09:53:55;;;;;;;69.87;25.43;;;-2.80;99.90;;;;;;5101555;28;20290;-80
2021/12/22 09:56:25;;;;;;;70.07;24.37;;;-2.80;99.90;;;;;;5107579;28;20208;-78
2021/12/22 09:58:52;;;;;;;79.83;27.03;;;-2.60;99.90;;;;;;5103008;28;20223;-80
2021/12/22 10:01:23;;;;;;;81.50;26.37;;;-2.60;99.90;;;;;;5101617;28;20224;-80
2021/12/22 10:03:56;;;;;;;76.10;26.10;;;-2.60;99.90;;;;;;5091432;28;20213;-80
2021/12/22 10:06:24;;;;;;;59.07;25.07;;;-2.50;99.90;;;;;;5103391;28;20297;-79
2021/12/22 10:08:57;;;;;;;65.97;25.37;;;-2.40;99.90;;;;;;5085520;28;20223;-79
2021/12/22 10:11:25;;;;;;;71.37;26.00;;;-2.40;99.90;;;;;;5108759;28;20228;-83
2021/12/22 10:13:52;;;;;;;70.87;25.70;;;-2.20;99.90;;;;;;5109074;28;20205;-79
2021/12/22 10:16:22;;;;;;;77.73;27.77;;;-2.20;99.90;;;;;;5095388;28;20282;-80
2021/12/22 10:19:06;;;;;;;71.30;26.27;;;-2.10;99.90;;;;;;5107751;28;20288;-79
2021/12/22 10:21:49;;;;;;;70.03;26.37;;;-1.90;99.90;;;;;;5089443;28;20289;-80
2021/12/22 10:24:16;;;;;;;65.60;26.27;;;-1.90;99.90;;;;;;5107072;28;20196;-79
2021/12/22 10:26:45;;;;;;;66.30;26.23;;;-1.80;99.90;;;;;;5109844;28;20210;-80
2021/12/22 10:29:14;;;;;;;65.57;26.07;;;-1.70;99.90;;;;;;5102877;28;20328;-79
2021/12/22 10:31:44;;;;;;;49.93;24.37;;;-1.60;99.90;;;;;;5109028;28;20212;-81
2021/12/22 10:34:13;;;;;;;53.77;25.20;;;-1.50;99.90;;;;;;5110814;28;20268;-80
2021/12/22 10:36:55;;;;;;;58.30;24.23;;;-1.50;99.90;;;;;;5107391;28;20273;-80
2021/12/22 10:39:27;;;;;;;50.43;22.77;;;-1.40;99.90;;;;;;5084425;28;20256;-77
2021/12/22 10:42:11;;;;;;;50.97;24.00;;;-1.40;99.90;;;;;;5099461;28;20200;-79
2021/12/22 10:44:42;;;;;;;50.70;23.03;;;-1.30;99.90;;;;;;5097002;28;20292;-79
2021/12/22 10:47:32;;;;;;;50.73;22.23;;;-1.20;99.90;;;;;;5106038;28;20203;-79
2021/12/22 10:50:01;;;;;;;42.77;21.23;;;-1.10;99.90;;;;;;5105346;28;20255;-79
2021/12/22 10:52:30;;;;;;;49.23;22.53;;;-1.10;99.90;;;;;;5098262;28;20263;-80
2021/12/22 10:55:13;;;;;;;55.97;22.90;;;-1.00;99.90;;;;;;5098771;28;20210;-79
2021/12/22 10:57:47;;;;;;;51.30;23.27;;;-0.90;99.90;;;;;;5102892;28;20210;-80
2021/12/22 11:00:25;;;;;;;50.67;21.23;;;-0.90;99.90;;;;;;5102643;28;20556;-77
2021/12/22 11:03:07;;;;;;;51.43;21.37;;;-0.80;99.90;;;;;;5090023;28;20245;-78
2021/12/22 11:05:51;;;;;;;48.87;21.80;;;-0.70;99.90;;;;;;5083329;28;20208;-79
2021/12/22 11:08:23;;;;;;;47.70;22.10;;;-0.60;99.90;;;;;;5082804;28;20229;-80
2021/12/22 11:10:52;;;;;;;44.37;20.90;;;-0.60;99.90;;;;;;5102959;28;20227;-79
2021/12/22 11:13:22;;;;;;;41.93;20.47;;;-0.50;99.90;;;;;;5085760;28;20196;-79
2021/12/22 11:15:50;;;;;;;43.37;20.23;;;-0.40;99.90;;;;;;5106643;28;20200;-80
2021/12/22 11:18:26;;;;;;;47.10;21.67;;;-0.40;99.90;;;;;;5107771;28;20230;-78
2021/12/22 11:21:23;;;;;;;40.97;18.97;;;-0.30;99.90;;;;;;5086448;28;20320;-80
2021/12/22 11:23:50;;;;;;;39.57;19.73;;;-0.20;99.90;;;;;;5079775;28;20255;-79
2021/12/22 11:26:17;;;;;;;39.90;17.53;;;-0.20;99.90;;;;;;5102993;28;20284;-79
2021/12/22 11:28:45;;;;;;;46.80;20.20;;;-0.10;99.90;;;;;;5088822;28;20301;-79
2021/12/22 11:31:12;;;;;;;42.60;18.27;;;-0.10;99.90;;;;;;5100265;28;20215;-78
2021/12/22 11:33:45;;;;;;;41.87;18.53;;;0.00;99.90;;;;;;5104907;28;20209;-79
2021/12/22 11:36:14;;;;;;;36.03;19.33;;;0.00;99.90;;;;;;5099266;28;20278;-80
2021/12/22 11:38:42;;;;;;;39.73;19.53;;;0.00;99.90;;;;;;5101773;28;20253;-79
2021/12/22 11:41:13;;;;;;;46.50;19.83;;;0.00;99.90;;;;;;5087834;28;20293;-79
2021/12/22 11:43:42;;;;;;;38.23;19.70;;;0.00;99.90;;;;;;5087748;28;20212;-80
2021/12/22 11:46:10;;;;;;;42.83;19.73;;;0.00;99.90;;;;;;5082334;28;20639;-78
2021/12/22 11:48:39;;;;;;;43.77;18.47;;;0.10;99.90;;;;;;5095405;28;20659;-79
2021/12/22 11:51:23;;;;;;;36.57;18.80;;;0.10;99.90;;;;;;5083479;28;20789;-81
2021/12/22 11:53:56;;;;;;;34.90;17.60;;;0.10;99.90;;;;;;5082111;28;20245;-78
2021/12/22 11:56:49;;;;;;;36.73;17.53;;;0.10;99.90;;;;;;5097753;28;20271;-79
2021/12/22 11:59:38;;;;;;;41.50;20.20;;;0.10;99.90;;;;;;5088085;28;20260;-79
2021/12/22 12:02:23;;;;;;;45.53;20.30;;;0.20;99.90;;;;;;5103146;28;20573;-80
2021/12/22 12:05:10;;;;;;;42.43;20.57;;;0.20;99.90;;;;;;5101928;28;20716;-79
2021/12/22 12:07:42;;;;;;;40.23;19.03;;;0.20;99.90;;;;;;5102244;28;20265;-78
2021/12/22 12:10:28;;;;;;;41.53;20.00;;;0.20;99.90;;;;;;5106311;28;20234;-80
2021/12/22 12:13:03;;;;;;;42.10;18.87;;;0.30;99.90;;;;;;5084257;28;20583;-79
2021/12/22 12:21:55;;;;;;;36.73;18.87;;;0.40;99.90;;;;;;5093602;28;20598;-78
2021/12/22 12:24:31;;;;;;;42.13;19.63;;;0.40;99.90;;;;;;5096019;28;20562;-80
2021/12/22 12:27:24;;;;;;;35.77;19.40;;;0.40;99.90;;;;;;5085156;28;20202;-80
2021/12/22 12:30:00;;;;;;;35.53;19.10;;;0.50;99.90;;;;;;5101197;28;20235;-79
2021/12/22 12:32:40;;;;;;;38.67;18.13;;;0.40;99.90;;;;;;5091242;28;20272;-79
2021/12/22 12:35:22;;;;;;;41.27;19.03;;;0.50;99.90;;;;;;5096987;28;20229;-79
2021/12/22 12:37:59;;;;;;;39.07;18.47;;;0.50;99.90;;;;;;5080050;28;20199;-81
2021/12/22 12:41:11;;;;;;;37.50;19.53;;;0.50;99.90;;;;;;5101384;28;20211;-84
2021/12/22 12:43:45;;;;;;;32.40;18.57;;;0.50;99.90;;;;;;5083616;28;20222;-80
2021/12/22 12:46:19;;;;;;;41.37;19.17;;;0.50;99.90;;;;;;5103859;28;20202;-80
2021/12/22 12:48:47;;;;;;;39.80;19.97;;;0.50;99.90;;;;;;5095639;28;20208;-81
2021/12/22 12:51:17;;;;;;;38.30;18.63;;;0.60;99.90;;;;;;5105751;28;20706;-79
2021/12/22 12:53:49;;;;;;;43.70;19.70;;;0.60;99.90;;;;;;5083339;28;20203;-79
2021/12/22 12:56:17;;;;;;;34.87;18.37;;;0.70;99.90;;;;;;5104588;28;20233;-80
2021/12/22 12:58:55;;;;;;;35.80;18.47;;;0.70;99.90;;;;;;5104187;28;20280;-80
2021/12/22 13:01:46;;;;;;;38.97;19.27;;;0.70;99.90;;;;;;5080886;28;20210;-80
2021/12/22 13:04:23;;;;;;;37.23;18.90;;;0.70;99.90;;;;;;5097945;28;20220;-80
2021/12/22 13:06:57;;;;;;;35.10;17.77;;;0.70;99.90;;;;;;5095198;28;20630;-78